Portada
METAR-TAF:

METAR-TAF

Aeroports :

Ithaca, Nova York, Estats Units d'Amèrica

latitud: 42-29N, longitud: 076-27W, altitud: 335 m

Observació

L'informe es va fer fa 43 minuts, a les 17:56 UTC
Vent 4 kt amb direcció variable
Temperatura 31°C
Humitat 43%
Pressió 1021 hPa
Visibilitat: 16.1 km
Núvols disperses a una alçada de 6000 ft

METAR: KITH 261756Z VRB04KT 10SM SCT060 31/17 A3016 RMK AO2 SLP203 T03060172 10317 20217 58009

Hora: 14:39 (18:39 UTC)

Pronòstic

L'informe es va fer fa 1 hora i 19 minuts, a les 17:20 UTC
Pronòstic vàlid del 26 a les 18 UTC al 27 a les 18 UTC
Vent 4 kt amb direcció variable
Visibilitat: 10 km
Cel clar

TAF: KITH 261720Z 2618/2718 VRB04KT P6SM SKC

Observacions i pronòstics meteorològics de més de 4000 aeroports (METAR i TAF).

Les estacions disponibles són els punts grocs i vermells al mapa.

Posi el ratolí al punt desitjat per veure el nom de l'estació.

Feu clic per veure les observacions i els pronòstics meteorològics.

Per canviar el mapa: feu clic els botons verds amb una creu de color negre per apropar; al botó verd amb un guió per allunyar la imatge; o en les fletxes verdes per a mapes adjacents.


METAR-TAF: